createdAt,value
2018-05-12T00:00:02.090Z,5.43
2018-05-12T00:02:28.676Z,5.00
2018-05-12T00:04:55.253Z,5.20
2018-05-12T00:07:21.838Z,5.63
2018-05-12T00:09:48.406Z,5.43
2018-05-12T00:12:14.965Z,5.13
2018-05-12T00:14:41.569Z,5.53
2018-05-12T00:17:08.190Z,5.60
2018-05-12T00:19:34.774Z,5.60
2018-05-12T00:22:01.352Z,5.80
2018-05-12T00:24:27.927Z,5.60
2018-05-12T00:26:54.526Z,5.87
2018-05-12T00:29:21.105Z,5.57
2018-05-12T00:31:47.713Z,5.87
2018-05-12T00:34:14.308Z,5.20
2018-05-12T00:36:40.922Z,6.17
2018-05-12T00:39:07.478Z,5.67
2018-05-12T00:41:34.095Z,6.03
2018-05-12T00:44:00.663Z,5.60
2018-05-12T00:46:27.241Z,6.17
2018-05-12T00:48:53.809Z,5.93
2018-05-12T00:51:20.397Z,6.40
2018-05-12T00:53:46.978Z,5.87
2018-05-12T00:56:13.573Z,5.40
2018-05-12T00:58:40.137Z,5.77
2018-05-12T01:01:06.751Z,5.13
2018-05-12T01:03:33.288Z,5.67
2018-05-12T01:05:59.870Z,5.50
2018-05-12T01:08:26.446Z,5.40
2018-05-12T01:10:53.012Z,5.30
2018-05-12T01:13:19.614Z,5.50
2018-05-12T01:15:46.174Z,5.60
2018-05-12T01:18:12.751Z,6.10
2018-05-12T01:20:39.313Z,5.47
2018-05-12T01:23:05.901Z,5.20
2018-05-12T01:25:32.484Z,5.60
2018-05-12T01:27:59.049Z,5.43
2018-05-12T01:30:25.634Z,5.17
2018-05-12T01:32:52.257Z,5.80
2018-05-12T01:35:18.826Z,5.70
2018-05-12T01:37:45.397Z,5.40
2018-05-12T01:40:11.993Z,5.53
2018-05-12T01:42:38.649Z,5.40
2018-05-12T01:45:05.211Z,5.70
2018-05-12T01:47:32.718Z,5.97
2018-05-12T01:49:59.291Z,5.83
2018-05-12T01:52:25.860Z,5.37
2018-05-12T01:54:52.434Z,5.47
2018-05-12T01:57:19.024Z,5.53
2018-05-12T01:59:45.594Z,5.37
2018-05-12T02:02:12.204Z,5.50
2018-05-12T02:04:38.781Z,6.07
2018-05-12T02:07:05.377Z,5.77
2018-05-12T02:09:31.949Z,5.47
2018-05-12T02:11:58.518Z,5.40
2018-05-12T02:14:25.099Z,5.37
2018-05-12T02:16:51.689Z,5.20
2018-05-12T02:19:18.285Z,5.83
2018-05-12T02:21:44.862Z,5.20
2018-05-12T02:24:11.421Z,5.43
2018-05-12T02:26:37.997Z,5.67
2018-05-12T02:29:04.577Z,5.03
2018-05-12T02:31:31.167Z,5.50
2018-05-12T02:33:57.755Z,5.93
2018-05-12T02:36:24.384Z,5.87
2018-05-12T02:38:50.951Z,5.97
2018-05-12T02:41:17.546Z,5.80
2018-05-12T02:43:44.120Z,5.30
2018-05-12T02:46:10.705Z,6.10
2018-05-12T02:48:37.268Z,5.80
2018-05-12T02:51:03.868Z,5.87
2018-05-12T02:53:30.448Z,5.30
2018-05-12T02:55:57.052Z,6.00
2018-05-12T02:58:23.639Z,5.80
2018-05-12T03:00:50.202Z,5.93
2018-05-12T03:03:16.777Z,6.40
2018-05-12T03:05:43.356Z,5.90
2018-05-12T03:08:09.923Z,6.10
2018-05-12T03:10:36.525Z,6.50
2018-05-12T03:13:03.147Z,6.00
2018-05-12T03:15:29.701Z,5.80
2018-05-12T03:17:56.273Z,5.83
2018-05-12T03:20:22.855Z,6.00
2018-05-12T03:22:49.889Z,5.90
2018-05-12T03:25:16.465Z,5.47
2018-05-12T03:27:43.037Z,5.77
2018-05-12T03:30:09.618Z,5.60
2018-05-12T03:32:36.173Z,5.50
2018-05-12T03:35:02.757Z,5.60
2018-05-12T03:37:29.885Z,5.57
2018-05-12T03:39:56.474Z,5.20
2018-05-12T03:42:23.048Z,5.30
2018-05-12T03:44:50.247Z,5.70
2018-05-12T03:47:16.819Z,5.50
2018-05-12T03:49:43.393Z,5.30
2018-05-12T03:52:09.973Z,5.40
2018-05-12T03:54:36.562Z,5.57
2018-05-12T03:57:03.116Z,5.47
2018-05-12T03:59:29.700Z,5.97
2018-05-12T04:01:56.253Z,5.40
2018-05-12T04:04:28.604Z,5.83
2018-05-12T04:07:00.953Z,6.10
2018-05-12T04:09:33.342Z,6.50
2018-05-12T04:12:05.791Z,6.20
2018-05-12T04:14:32.369Z,5.50
2018-05-12T04:16:58.937Z,6.00
2018-05-12T04:19:25.518Z,6.07
2018-05-12T04:21:52.074Z,6.07
2018-05-12T04:24:18.638Z,5.70
2018-05-12T04:26:45.247Z,5.93
2018-05-12T04:29:11.812Z,5.90
2018-05-12T04:31:38.385Z,6.03
2018-05-12T04:34:04.968Z,5.83
2018-05-12T04:36:32.091Z,6.00
2018-05-12T04:38:58.673Z,5.30
2018-05-12T04:41:25.249Z,5.70
2018-05-12T04:43:51.817Z,5.43
2018-05-12T04:46:19.101Z,6.07
2018-05-12T04:48:45.685Z,5.97
2018-05-12T04:51:12.251Z,5.77
2018-05-12T04:53:38.820Z,5.90
2018-05-12T04:56:05.390Z,6.07
2018-05-12T04:58:31.967Z,6.03
2018-05-12T05:00:58.545Z,6.20
2018-05-12T05:03:25.109Z,6.67
2018-05-12T05:05:51.686Z,5.30
2018-05-12T05:08:18.258Z,6.13
2018-05-12T05:10:44.849Z,6.07
2018-05-12T05:13:11.441Z,5.83
2018-05-12T05:15:38.009Z,6.03
2018-05-12T05:18:04.577Z,5.80
2018-05-12T05:20:31.145Z,5.50
2018-05-12T05:22:57.722Z,5.93
2018-05-12T05:25:24.390Z,6.70
2018-05-12T05:27:50.948Z,5.93
2018-05-12T05:30:17.510Z,5.40
2018-05-12T05:32:44.093Z,6.37
2018-05-12T05:35:10.705Z,5.70
2018-05-12T05:37:37.237Z,6.13
2018-05-12T05:40:04.190Z,5.80
2018-05-12T05:42:30.729Z,5.87
2018-05-12T05:44:57.310Z,5.57
2018-05-12T05:47:23.881Z,5.60
2018-05-12T05:49:50.441Z,5.90
2018-05-12T05:52:17.009Z,5.90
2018-05-12T05:54:43.580Z,5.90
2018-05-12T05:57:10.147Z,6.00
2018-05-12T05:59:36.717Z,6.77
2018-05-12T06:02:03.372Z,7.00
2018-05-12T06:04:29.861Z,7.10
2018-05-12T06:06:56.503Z,6.57
2018-05-12T06:09:23.014Z,7.53
2018-05-12T06:11:49.603Z,7.63
2018-05-12T06:14:16.168Z,7.83
2018-05-12T06:16:42.744Z,7.40
2018-05-12T06:19:09.321Z,8.30
2018-05-12T06:21:35.891Z,7.43
2018-05-12T06:24:02.461Z,8.37
2018-05-12T06:26:29.033Z,8.17
2018-05-12T06:28:55.608Z,8.10
2018-05-12T06:31:22.180Z,8.20
2018-05-12T06:33:48.761Z,7.87
2018-05-12T06:36:15.329Z,8.93
2018-05-12T06:38:41.954Z,8.13
2018-05-12T06:41:08.561Z,7.80
2018-05-12T06:43:35.795Z,8.13
2018-05-12T06:46:02.369Z,10.03
2018-05-12T06:48:28.962Z,8.23
2018-05-12T06:50:55.541Z,8.60
2018-05-12T06:53:22.168Z,8.07
2018-05-12T06:55:48.770Z,9.33
2018-05-12T06:58:15.359Z,8.60
2018-05-12T07:00:41.954Z,8.40
2018-05-12T07:03:08.525Z,8.67
2018-05-12T07:05:35.094Z,8.73
2018-05-12T07:08:01.814Z,9.53
2018-05-12T07:10:28.392Z,8.53
2018-05-12T07:12:54.965Z,9.30
2018-05-12T07:15:21.541Z,10.00
2018-05-12T07:17:48.127Z,8.60
2018-05-12T07:20:14.734Z,9.60
2018-05-12T07:22:42.129Z,9.90
2018-05-12T07:25:08.713Z,9.53
2018-05-12T07:27:35.285Z,9.53
2018-05-12T07:30:01.858Z,9.77
2018-05-12T07:32:28.425Z,9.80
2018-05-12T07:34:54.998Z,9.43
2018-05-12T07:37:21.602Z,9.87
2018-05-12T07:39:48.169Z,9.77
2018-05-12T07:42:14.739Z,10.00
2018-05-12T07:44:41.318Z,9.87
2018-05-12T07:47:07.901Z,8.73
2018-05-12T07:49:34.483Z,10.50
2018-05-12T07:52:02.398Z,9.70
2018-05-12T07:54:28.962Z,9.23
2018-05-12T07:56:55.619Z,8.97
2018-05-12T07:59:22.139Z,9.30
2018-05-12T08:01:49.297Z,9.20
2018-05-12T08:04:15.865Z,8.40
2018-05-12T08:06:42.473Z,8.60
2018-05-12T08:09:09.080Z,8.40
2018-05-12T08:11:35.649Z,8.37
2018-05-12T08:14:02.230Z,8.17
2018-05-12T08:16:28.807Z,9.07
2018-05-12T08:18:55.374Z,8.53
2018-05-12T08:21:21.945Z,8.43
2018-05-12T08:23:48.522Z,9.43
2018-05-12T08:26:15.112Z,9.57
2018-05-12T08:28:41.682Z,8.80
2018-05-12T08:31:08.258Z,8.20
2018-05-12T08:33:34.834Z,7.23
2018-05-12T08:36:01.396Z,7.80
2018-05-12T08:38:27.981Z,7.60
2018-05-12T08:40:55.085Z,8.03
2018-05-12T08:43:21.685Z,8.60
2018-05-12T08:45:48.286Z,6.70
2018-05-12T08:48:14.865Z,6.47
2018-05-12T08:50:41.421Z,6.73
2018-05-12T08:53:07.988Z,5.60
2018-05-12T08:55:34.569Z,5.83
2018-05-12T08:58:01.144Z,4.80
2018-05-12T09:00:27.720Z,5.63
2018-05-12T09:02:54.305Z,6.13
2018-05-12T09:05:20.873Z,7.57
2018-05-12T09:07:47.460Z,7.17
2018-05-12T09:10:14.035Z,6.87
2018-05-12T09:12:40.598Z,6.57
2018-05-12T09:15:07.169Z,5.20
2018-05-12T09:17:33.753Z,5.67
2018-05-12T09:20:00.379Z,4.90
2018-05-12T09:22:26.928Z,4.93
2018-05-12T09:24:53.509Z,5.30
2018-05-12T09:27:20.075Z,5.17
2018-05-12T09:29:46.645Z,5.20
2018-05-12T09:32:13.865Z,5.90
2018-05-12T09:34:40.445Z,5.70
2018-05-12T09:37:07.052Z,5.33
2018-05-12T09:39:33.593Z,5.30
2018-05-12T09:42:01.284Z,5.23
2018-05-12T09:44:27.864Z,4.97
2018-05-12T09:46:54.494Z,4.57
2018-05-12T09:49:21.185Z,4.60
2018-05-12T09:51:47.755Z,4.63
2018-05-12T09:54:14.329Z,4.63
2018-05-12T09:56:40.917Z,4.77
2018-05-12T09:59:07.487Z,4.83
2018-05-12T10:01:34.078Z,4.50
2018-05-12T10:04:00.656Z,5.10
2018-05-12T10:06:28.072Z,4.90
2018-05-12T10:08:54.661Z,4.50
2018-05-12T10:11:21.200Z,5.43
2018-05-12T10:13:47.773Z,4.73
2018-05-12T10:16:14.357Z,5.10
2018-05-12T10:18:40.925Z,4.67
2018-05-12T10:21:07.501Z,4.93
2018-05-12T10:23:34.074Z,5.03
2018-05-12T10:26:01.157Z,4.60
2018-05-12T10:28:27.725Z,4.30
2018-05-12T10:30:54.371Z,4.47
2018-05-12T10:33:20.957Z,4.67
2018-05-12T10:35:47.525Z,4.30
2018-05-12T10:38:15.111Z,5.00
2018-05-12T10:40:41.790Z,4.70
2018-05-12T10:43:08.359Z,4.40
2018-05-12T10:45:34.951Z,4.77
2018-05-12T10:48:01.545Z,4.57
2018-05-12T10:50:28.195Z,3.93
2018-05-12T10:52:54.738Z,4.73
2018-05-12T10:55:21.314Z,4.50
2018-05-12T10:57:47.893Z,5.10
2018-05-12T11:00:14.444Z,4.43
2018-05-12T11:02:41.015Z,4.07
2018-05-12T11:05:07.608Z,4.40
2018-05-12T11:07:34.173Z,4.33
2018-05-12T11:10:00.888Z,4.47
2018-05-12T11:12:27.445Z,4.53
2018-05-12T11:14:54.037Z,4.83
2018-05-12T11:17:20.610Z,4.23
2018-05-12T11:19:47.174Z,4.37
2018-05-12T11:22:13.746Z,4.27
2018-05-12T11:24:40.314Z,4.50
2018-05-12T11:27:06.933Z,4.07
2018-05-12T11:29:33.493Z,4.43
2018-05-12T11:32:00.085Z,4.80
2018-05-12T11:34:26.669Z,4.60
2018-05-12T11:36:53.254Z,5.03
2018-05-12T11:39:19.825Z,4.70
2018-05-12T11:41:46.405Z,4.50
2018-05-12T11:44:13.033Z,4.27
2018-05-12T11:46:39.602Z,5.30
2018-05-12T11:49:06.178Z,5.30
2018-05-12T11:51:33.650Z,4.60
2018-05-12T11:54:00.220Z,4.30
2018-05-12T11:56:26.818Z,4.40
2018-05-12T11:58:53.411Z,4.47
2018-05-12T12:01:19.981Z,4.73
2018-05-12T12:03:46.564Z,4.60
2018-05-12T12:06:13.138Z,4.40
2018-05-12T12:08:39.692Z,4.20
2018-05-12T12:11:06.261Z,5.00
2018-05-12T12:13:32.829Z,4.63
2018-05-12T12:15:59.677Z,4.80
2018-05-12T12:18:26.762Z,4.43
2018-05-12T12:20:53.334Z,4.40
2018-05-12T12:23:19.901Z,4.43
2018-05-12T12:25:46.481Z,4.30
2018-05-12T12:28:13.043Z,4.50
2018-05-12T12:30:39.673Z,4.60
2018-05-12T12:33:06.259Z,3.90
2018-05-12T12:35:32.825Z,4.77
2018-05-12T12:37:59.591Z,4.57
2018-05-12T12:40:26.134Z,4.50
2018-05-12T12:42:52.718Z,4.77
2018-05-12T12:45:19.272Z,4.20
2018-05-12T12:47:46.174Z,4.50
2018-05-12T12:50:12.741Z,4.53
2018-05-12T12:52:39.321Z,4.43
2018-05-12T12:55:05.893Z,4.37
2018-05-12T12:57:32.469Z,4.70
2018-05-12T12:59:59.135Z,4.70
2018-05-12T13:02:25.686Z,4.63
2018-05-12T13:04:52.283Z,4.50
2018-05-12T13:07:18.818Z,4.77
2018-05-12T13:09:45.389Z,4.60
2018-05-12T13:12:11.960Z,5.00
2018-05-12T13:14:38.523Z,4.20
2018-05-12T13:17:05.089Z,4.67
2018-05-12T13:19:31.681Z,4.30
2018-05-12T13:21:58.252Z,4.90
2018-05-12T13:24:24.826Z,4.70
2018-05-12T13:26:51.405Z,4.50
2018-05-12T13:29:17.973Z,4.47
2018-05-12T13:31:44.553Z,4.60
2018-05-12T13:34:11.724Z,4.57
2018-05-12T13:36:38.377Z,4.20
2018-05-12T13:39:04.929Z,4.47
2018-05-12T13:41:32.321Z,4.50
2018-05-12T13:43:58.904Z,4.63
2018-05-12T13:46:25.477Z,4.30
2018-05-12T13:48:52.061Z,4.33
2018-05-12T13:51:18.640Z,4.33
2018-05-12T13:53:45.202Z,4.80
2018-05-12T13:56:11.814Z,4.47
2018-05-12T13:58:38.361Z,4.70
2018-05-12T14:01:04.924Z,5.13
2018-05-12T14:03:31.496Z,4.70
2018-05-12T14:05:58.073Z,5.20
2018-05-12T14:08:24.641Z,4.50
2018-05-12T14:10:51.213Z,4.50
2018-05-12T14:13:17.812Z,4.70
2018-05-12T14:15:44.370Z,4.53
2018-05-12T14:18:10.948Z,4.10
2018-05-12T14:20:37.545Z,4.20
2018-05-12T14:23:04.825Z,4.50
2018-05-12T14:25:31.421Z,4.70
2018-05-12T14:27:57.993Z,5.80
2018-05-12T14:30:25.238Z,4.60
2018-05-12T14:32:51.813Z,4.80
2018-05-12T14:35:18.389Z,4.90
2018-05-12T14:37:44.965Z,5.33
2018-05-12T14:40:11.525Z,5.00
2018-05-12T14:42:38.154Z,5.27
2018-05-12T14:45:04.709Z,4.87
2018-05-12T14:47:31.279Z,4.37
2018-05-12T14:49:57.854Z,4.07
2018-05-12T14:52:24.427Z,4.33
2018-05-12T14:54:51.025Z,4.40
2018-05-12T14:57:17.591Z,4.33
2018-05-12T14:59:44.164Z,4.53
2018-05-12T15:02:10.730Z,4.70
2018-05-12T15:04:37.309Z,4.87
2018-05-12T15:07:03.881Z,4.43
2018-05-12T15:09:30.484Z,4.50
2018-05-12T15:11:57.050Z,4.50
2018-05-12T15:14:23.683Z,4.50
2018-05-12T15:16:50.246Z,4.90
2018-05-12T15:19:16.809Z,4.97
2018-05-12T15:21:43.384Z,4.70
2018-05-12T15:24:09.951Z,4.43
2018-05-12T15:26:36.582Z,4.60
2018-05-12T15:29:03.145Z,5.10
2018-05-12T15:31:29.709Z,4.87
2018-05-12T15:33:57.285Z,5.00
2018-05-12T15:36:23.849Z,4.93
2018-05-12T15:38:50.443Z,4.67
2018-05-12T15:41:17.010Z,4.60
2018-05-12T15:43:43.635Z,4.60
2018-05-12T15:46:10.183Z,4.90
2018-05-12T15:48:36.762Z,5.10
2018-05-12T15:51:03.327Z,4.97
2018-05-12T15:53:29.929Z,4.30
2018-05-12T15:55:56.533Z,5.03
2018-05-12T15:58:23.107Z,5.30
2018-05-12T16:00:49.684Z,5.60
2018-05-12T16:03:16.315Z,5.03
2018-05-12T16:05:42.839Z,5.00
2018-05-12T16:08:09.424Z,5.40
2018-05-12T16:10:36.028Z,5.77
2018-05-12T16:13:02.600Z,5.13
2018-05-12T16:15:29.161Z,5.20
2018-05-12T16:17:55.748Z,5.30
2018-05-12T16:20:22.645Z,5.30
2018-05-12T16:22:49.201Z,4.97
2018-05-12T16:25:15.769Z,5.30
2018-05-12T16:27:43.189Z,4.80
2018-05-12T16:30:09.777Z,4.93
2018-05-12T16:32:36.341Z,4.90
2018-05-12T16:35:02.914Z,5.37
2018-05-12T16:37:29.487Z,5.13
2018-05-12T16:39:56.053Z,5.20
2018-05-12T16:42:22.636Z,5.00
2018-05-12T16:44:49.205Z,4.77
2018-05-12T16:47:15.794Z,5.00
2018-05-12T16:49:42.377Z,5.07
2018-05-12T16:52:08.957Z,5.10
2018-05-12T16:54:35.530Z,5.17
2018-05-12T16:57:02.105Z,5.83
2018-05-12T16:59:28.689Z,5.43
2018-05-12T17:01:55.262Z,4.87
2018-05-12T17:04:21.820Z,5.20
2018-05-12T17:06:48.406Z,4.53
2018-05-12T17:09:14.966Z,5.20
2018-05-12T17:11:41.582Z,5.20
2018-05-12T17:14:08.144Z,6.00
2018-05-12T17:16:34.713Z,4.50
2018-05-12T17:19:01.283Z,5.00
2018-05-12T17:21:27.849Z,4.50
2018-05-12T17:23:54.467Z,5.10
2018-05-12T17:26:21.045Z,5.23
2018-05-12T17:28:48.309Z,4.93
2018-05-12T17:31:14.912Z,5.60
2018-05-12T17:33:41.502Z,4.70
2018-05-12T17:36:08.073Z,4.80
2018-05-12T17:38:34.646Z,5.00
2018-05-12T17:41:01.228Z,6.50
2018-05-12T17:43:27.853Z,9.40
2018-05-12T17:45:54.437Z,10.80
2018-05-12T17:48:21.034Z,5.30
2018-05-12T17:50:47.692Z,12.30
2018-05-12T17:53:14.245Z,11.83
2018-05-12T17:55:40.820Z,9.50
2018-05-12T17:58:07.417Z,6.10
2018-05-12T18:00:33.993Z,5.30
2018-05-12T18:03:00.558Z,5.20
2018-05-12T18:05:27.133Z,5.27
2018-05-12T18:07:54.441Z,4.90
2018-05-12T18:10:21.033Z,5.73
2018-05-12T18:12:47.597Z,5.50
2018-05-12T18:15:14.181Z,5.43
2018-05-12T18:17:40.759Z,7.07
2018-05-12T18:20:07.342Z,5.67
2018-05-12T18:22:33.939Z,6.23
2018-05-12T18:25:00.509Z,6.50
2018-05-12T18:27:27.077Z,5.80
2018-05-12T18:29:53.801Z,5.00
2018-05-12T18:32:20.367Z,5.30
2018-05-12T18:34:46.933Z,5.60
2018-05-12T18:37:13.557Z,5.63
2018-05-12T18:39:40.117Z,5.10
2018-05-12T18:42:06.698Z,6.73
2018-05-12T18:44:33.296Z,8.70
2018-05-12T18:46:59.874Z,8.60
2018-05-12T18:49:26.442Z,9.87
2018-05-12T18:51:53.021Z,9.03
2018-05-12T18:54:19.597Z,9.30
2018-05-12T18:56:46.349Z,11.33
2018-05-12T18:59:12.968Z,12.93
2018-05-12T19:01:39.542Z,7.57
2018-05-12T19:04:06.969Z,6.30
2018-05-12T19:06:33.573Z,5.60
2018-05-12T19:09:00.149Z,5.30
2018-05-12T19:11:26.738Z,5.43
2018-05-12T19:13:53.325Z,5.73
2018-05-12T19:16:19.892Z,5.90
2018-05-12T19:18:46.469Z,5.87
2018-05-12T19:21:13.075Z,5.87
2018-05-12T19:23:39.614Z,5.47
2018-05-12T19:26:06.197Z,5.70
2018-05-12T19:28:32.774Z,5.70
2018-05-12T19:30:59.666Z,5.77
2018-05-12T19:33:26.241Z,5.40
2018-05-12T19:35:53.044Z,6.03
2018-05-12T19:38:19.600Z,5.47
2018-05-12T19:40:46.174Z,6.53
2018-05-12T19:43:12.746Z,6.70
2018-05-12T19:45:39.337Z,5.73
2018-05-12T19:48:05.913Z,6.30
2018-05-12T19:50:32.509Z,5.43
2018-05-12T19:52:59.101Z,6.03
2018-05-12T19:55:25.685Z,6.00
2018-05-12T19:57:52.265Z,6.50
2018-05-12T20:00:18.855Z,6.23
2018-05-12T20:02:45.442Z,6.03
2018-05-12T20:05:12.002Z,6.40
2018-05-12T20:07:39.081Z,6.37
2018-05-12T20:10:05.637Z,6.63
2018-05-12T20:12:32.217Z,6.47
2018-05-12T20:14:58.776Z,6.53
2018-05-12T20:17:25.369Z,6.47
2018-05-12T20:19:51.951Z,6.10
2018-05-12T20:22:18.520Z,6.23
2018-05-12T20:24:45.097Z,6.23
2018-05-12T20:27:11.673Z,6.20
2018-05-12T20:29:38.265Z,6.23
2018-05-12T20:32:05.073Z,5.87
2018-05-12T20:34:31.689Z,6.10
2018-05-12T20:36:58.258Z,6.50
2018-05-12T20:39:24.821Z,6.80
2018-05-12T20:41:51.393Z,6.70
2018-05-12T20:44:17.965Z,6.90
2018-05-12T20:46:44.550Z,6.10
2018-05-12T20:49:11.121Z,6.77
2018-05-12T20:51:37.697Z,6.60
2018-05-12T20:54:04.310Z,6.10
2018-05-12T20:56:31.181Z,5.97
2018-05-12T20:58:57.765Z,6.27
2018-05-12T21:01:24.348Z,6.57
2018-05-12T21:03:50.944Z,7.10
2018-05-12T21:06:17.510Z,6.20
2018-05-12T21:08:44.122Z,6.40
2018-05-12T21:11:10.680Z,6.30
2018-05-12T21:13:37.298Z,6.07
2018-05-12T21:16:03.904Z,6.67
2018-05-12T21:18:32.273Z,5.97
2018-05-12T21:20:58.884Z,5.87
2018-05-12T21:23:25.456Z,6.57
2018-05-12T21:25:52.030Z,6.30
2018-05-12T21:28:18.596Z,6.30
2018-05-12T21:30:45.302Z,6.00
2018-05-12T21:33:11.856Z,6.10
2018-05-12T21:35:38.430Z,6.20
2018-05-12T21:38:05.034Z,6.00
2018-05-12T21:40:31.609Z,6.47
2018-05-12T21:42:58.241Z,5.60
2018-05-12T21:45:25.313Z,5.70
2018-05-12T21:47:51.895Z,5.80
2018-05-12T21:50:18.555Z,5.60
2018-05-12T21:52:45.127Z,5.10
2018-05-12T21:55:11.747Z,5.87
2018-05-12T21:57:38.289Z,5.90
2018-05-12T22:00:04.898Z,5.83
2018-05-12T22:02:31.453Z,5.67
2018-05-12T22:04:58.057Z,5.80
2018-05-12T22:07:25.063Z,5.63
2018-05-12T22:09:51.633Z,6.00
2018-05-12T22:12:18.231Z,6.00
2018-05-12T22:14:44.793Z,5.37
2018-05-12T22:17:11.377Z,5.60
2018-05-12T22:19:37.961Z,5.80
2018-05-12T22:22:04.538Z,5.50
2018-05-12T22:24:31.134Z,5.50
2018-05-12T22:26:57.715Z,5.37
2018-05-12T22:29:24.321Z,6.23
2018-05-12T22:31:50.895Z,5.90
2018-05-12T22:34:17.470Z,5.23
2018-05-12T22:36:44.062Z,5.30
2018-05-12T22:39:11.345Z,5.47
2018-05-12T22:41:37.921Z,5.73
2018-05-12T22:44:04.511Z,5.50
2018-05-12T22:46:31.087Z,5.47
2018-05-12T22:48:58.368Z,5.93
2018-05-12T22:51:24.957Z,5.50
2018-05-12T22:53:51.541Z,5.60
2018-05-12T22:56:18.135Z,5.50
2018-05-12T22:58:44.727Z,5.90
2018-05-12T23:01:11.346Z,5.70
2018-05-12T23:03:37.929Z,5.67
2018-05-12T23:06:04.610Z,6.07
2018-05-12T23:08:31.480Z,5.83
2018-05-12T23:10:58.066Z,5.90
2018-05-12T23:13:24.663Z,6.40
2018-05-12T23:15:51.600Z,5.90
2018-05-12T23:18:18.173Z,5.53
2018-05-12T23:20:44.745Z,5.80
2018-05-12T23:23:11.321Z,6.07
2018-05-12T23:25:37.881Z,7.90
2018-05-12T23:28:04.490Z,9.53
2018-05-12T23:30:31.065Z,10.10
2018-05-12T23:32:57.757Z,8.63
2018-05-12T23:35:24.963Z,8.07
2018-05-12T23:37:51.541Z,9.20
2018-05-12T23:40:18.201Z,8.67
2018-05-12T23:42:44.785Z,8.40
2018-05-12T23:45:11.391Z,8.10
2018-05-12T23:47:38.145Z,6.90
2018-05-12T23:50:04.698Z,6.40
2018-05-12T23:52:31.265Z,6.03
2018-05-12T23:54:58.212Z,6.43
2018-05-12T23:57:24.777Z,6.33
2018-05-12T23:59:51.357Z,5.87
